Time;durP1;ratioP1;P1;durP2;ratioP2;P2;SDS_P1;SDS_P2;PMS_P1;PMS_P2;Temp;Humidity;BMP_temperature;BMP_pressure;BME280_temperature;BME280_humidity;BME280_pressure;Samples;Min_cycle;Max_cycle;Signal;HPM_P1;HPM_P2
2023/10/21 00:01:53;;;;;;;;;;;;;;;21.74;52.86;100113.13;7392792;19;1501;-40
2023/10/21 00:04:22;;;;;;;;;;;;;;;21.97;52.11;100118.66;7394935;19;1486;-40
2023/10/21 00:06:50;;;;;;;;;;;;;;;22.08;51.59;100112.06;7393488;19;1529;-40
2023/10/21 00:09:18;;;;;;;;;;;;;;;22.19;51.43;100124.34;7392608;19;1566;-40
2023/10/21 00:11:49;;;;;;;;;;;;;;;22.23;51.27;100083.41;7393322;19;1382;-41
2023/10/21 00:14:18;;;;;;;;;;;;;;;22.20;51.24;100118.78;7394025;19;1486;-41
2023/10/21 00:16:48;;;;;;;;;;;;;;;22.17;51.35;100135.28;7391299;19;1868;-41
2023/10/21 00:19:16;;;;;;;;;;;;;;;22.20;51.31;100118.78;7393903;19;1408;-41
2023/10/21 00:21:44;;;;;;;;;;;;;;;22.22;51.12;100118.59;7394057;19;1477;-40
2023/10/21 00:24:13;;;;;;;;;;;;;;;22.18;51.00;100112.72;7393625;19;1917;-40
2023/10/21 00:26:50;;;;;;;;;;;;;;;22.13;51.14;100123.16;7393335;19;1797;-40
2023/10/21 00:29:19;;;;;;;;;;;;;;;22.11;51.16;100127.88;7392550;19;1550;-40
2023/10/21 00:31:47;;;;;;;;;;;;;;;22.15;51.10;100115.75;7393451;19;1745;-40
2023/10/21 00:34:16;;;;;;;;;;;;;;;22.14;51.27;100132.06;7394014;19;1522;-40
2023/10/21 00:36:44;;;;;;;;;;;;;;;22.08;51.25;100113.91;7393662;19;1874;-40
2023/10/21 00:39:13;;;;;;;;;;;;;;;22.08;51.23;100127.38;7392957;19;1561;-40
2023/10/21 00:41:41;;;;;;;;;;;;;;;21.92;51.65;100136.31;7377379;19;1223;-40
2023/10/21 00:44:12;;;;;;;;;;;;;;;21.85;51.72;100126.22;7393552;19;1748;-40
2023/10/21 00:46:42;;;;;;;;;;;;;;;21.89;51.81;100115.13;7394335;19;1685;-40
2023/10/21 00:49:10;;;;;;;;;;;;;;;21.91;51.73;100113.13;7392829;19;1486;-40
2023/10/21 00:51:40;;;;;;;;;;;;;;;21.93;51.69;100106.53;7393523;19;1831;-40
2023/10/21 00:54:09;;;;;;;;;;;;;;;21.92;51.43;100120.16;7392504;19;1819;-40
2023/10/21 00:56:37;;;;;;;;;;;;;;;21.87;51.78;100114.47;7392662;19;1841;-40
2023/10/21 00:59:06;;;;;;;;;;;;;;;21.84;51.54;100112.94;7392719;19;1834;-40
2023/10/21 01:01:34;;;;;;;;;;;;;;;21.88;51.65;100122.34;7391976;19;1735;-40
2023/10/21 01:04:03;;;;;;;;;;;;;;;21.85;51.61;100109.25;7393127;19;1439;-40
2023/10/21 01:06:32;;;;;;;;;;;;;;;21.81;51.55;100116.81;7393929;19;1548;-40
2023/10/21 01:09:01;;;;;;;;;;;;;;;21.79;51.44;100120.69;7393776;19;1458;-40
2023/10/21 01:11:29;;;;;;;;;;;;;;;21.80;51.39;100115.13;7391673;19;1894;-40
2023/10/21 01:13:57;;;;;;;;;;;;;;;21.82;51.61;100110.41;7390597;19;1761;-40
2023/10/21 01:16:27;;;;;;;;;;;;;;;21.81;51.33;100135.66;7391283;19;1859;-40
2023/10/21 01:18:59;;;;;;;;;;;;;;;21.85;51.50;100128.09;7392026;19;1409;-40
2023/10/21 01:21:27;;;;;;;;;;;;;;;21.85;51.35;100137.00;7391941;19;1217;-40
2023/10/21 01:23:58;;;;;;;;;;;;;;;21.84;51.53;100132.66;7391770;19;1893;-40
2023/10/21 01:26:26;;;;;;;;;;;;;;;21.87;51.33;100136.00;7391658;19;1874;-41
2023/10/21 01:28:54;;;;;;;;;;;;;;;21.76;51.37;100131.78;7392579;19;1538;-40
2023/10/21 01:31:23;;;;;;;;;;;;;;;21.75;51.38;100122.88;7390695;19;1553;-40
2023/10/21 01:33:51;;;;;;;;;;;;;;;21.71;51.46;100108.09;7391937;19;1474;-40
2023/10/21 01:36:20;;;;;;;;;;;;;;;21.75;51.40;100144.41;7392469;19;1513;-40
2023/10/21 01:38:48;;;;;;;;;;;;;;;21.77;51.17;100144.25;7390316;19;1946;-40
2023/10/21 01:41:19;;;;;;;;;;;;;;;21.79;51.23;100142.22;7392076;19;1569;-40
2023/10/21 01:43:47;;;;;;;;;;;;;;;21.77;51.35;100147.78;7376873;19;1852;-40
2023/10/21 01:46:16;;;;;;;;;;;;;;;21.76;51.35;100140.69;7390509;19;1486;-40
2023/10/21 01:48:44;;;;;;;;;;;;;;;21.76;51.17;100143.38;7391659;19;1482;-40
2023/10/21 01:51:13;;;;;;;;;;;;;;;21.81;51.23;100145.59;7390915;19;1600;-40
2023/10/21 01:53:41;;;;;;;;;;;;;;;21.74;51.24;100139.19;7391001;19;1767;-40
2023/10/21 01:56:09;;;;;;;;;;;;;;;21.70;51.26;100146.75;7391221;19;1491;-40
2023/10/21 01:58:40;;;;;;;;;;;;;;;21.78;51.24;100146.75;7389890;19;1867;-40
2023/10/21 02:01:12;;;;;;;;;;;;;;;21.79;51.04;100144.91;7389821;19;1552;-40
2023/10/21 02:03:42;;;;;;;;;;;;;;;21.69;51.12;100131.63;7392369;19;1413;-41
2023/10/21 02:06:10;;;;;;;;;;;;;;;21.71;51.19;100156.53;7390787;19;1848;-41
2023/10/21 02:08:38;;;;;;;;;;;;;;;21.73;51.05;100165.28;7390776;19;1601;-42
2023/10/21 02:11:08;;;;;;;;;;;;;;;21.65;50.91;100135.66;7388570;19;1765;-41
2023/10/21 02:13:36;;;;;;;;;;;;;;;21.67;50.96;100155.19;7391737;19;1470;-41
2023/10/21 02:16:11;;;;;;;;;;;;;;;21.68;51.08;100137.19;7389878;19;1526;-41
2023/10/21 02:18:39;;;;;;;;;;;;;;;21.69;51.04;100152.34;7388811;19;1859;-46
2023/10/21 02:21:08;;;;;;;;;;;;;;;21.65;51.08;100155.34;7391152;19;1553;-41
2023/10/21 02:23:36;;;;;;;;;;;;;;;21.63;51.04;100157.38;7391839;19;1561;-41
2023/10/21 02:26:06;;;;;;;;;;;;;;;21.64;51.05;100160.88;7398263;19;1580;-41
2023/10/21 02:28:34;;;;;;;;;;;;;;;21.62;50.90;100166.44;7397734;19;1584;-41
2023/10/21 02:31:07;;;;;;;;;;;;;;;21.61;50.97;100154.00;7397546;19;1827;-41
2023/10/21 02:33:35;;;;;;;;;;;;;;;21.57;50.83;100165.28;7398402;19;1493;-41
2023/10/21 02:36:04;;;;;;;;;;;;;;;21.58;51.08;100157.00;7398073;19;1654;-41
2023/10/21 02:38:32;;;;;;;;;;;;;;;21.58;50.93;100156.19;7395651;19;1888;-41
2023/10/21 02:41:00;;;;;;;;;;;;;;;21.59;51.06;100160.56;7397766;19;1485;-41
2023/10/21 02:43:29;;;;;;;;;;;;;;;21.52;51.18;100162.22;7382431;19;1716;-41
2023/10/21 02:45:57;;;;;;;;;;;;;;;21.58;50.90;100175.00;7397458;19;1509;-41
2023/10/21 02:48:28;;;;;;;;;;;;;;;21.59;50.97;100163.25;7396022;19;1478;-41
2023/10/21 02:50:57;;;;;;;;;;;;;;;21.53;51.06;100164.75;7397498;19;1581;-41
2023/10/21 02:53:25;;;;;;;;;;;;;;;21.60;50.99;100181.91;7395379;19;1717;-41
2023/10/21 02:55:53;;;;;;;;;;;;;;;21.57;51.03;100173.34;7396831;19;1530;-42
2023/10/21 02:58:21;;;;;;;;;;;;;;;21.55;51.02;100188.81;7395411;19;1855;-41
2023/10/21 03:00:50;;;;;;;;;;;;;;;21.58;51.01;100181.22;7397090;19;1834;-41
2023/10/21 03:03:19;;;;;;;;;;;;;;;21.56;50.98;100185.09;7396269;19;1462;-45
2023/10/21 03:05:50;;;;;;;;;;;;;;;21.52;50.83;100173.81;7396349;19;1485;-41
2023/10/21 03:08:18;;;;;;;;;;;;;;;21.57;50.91;100174.19;7396705;19;1462;-42
2023/10/21 03:10:48;;;;;;;;;;;;;;;21.58;50.97;100188.47;7397826;19;1451;-41
2023/10/21 03:13:16;;;;;;;;;;;;;;;21.60;50.93;100178.38;7396432;19;1490;-42
2023/10/21 03:15:45;;;;;;;;;;;;;;;21.61;51.12;100172.00;7397072;19;1570;-41
2023/10/21 03:18:13;;;;;;;;;;;;;;;21.60;50.92;100170.31;7393590;19;1847;-41
2023/10/21 03:20:41;;;;;;;;;;;;;;;21.54;51.41;100187.13;7394153;19;1396;-42
2023/10/21 03:23:13;;;;;;;;;;;;;;;21.52;51.69;100189.13;7394534;19;1356;-41
2023/10/21 03:25:41;;;;;;;;;;;;;;;21.45;51.72;100170.97;7396551;19;1369;-41
2023/10/21 03:28:09;;;;;;;;;;;;;;;21.50;51.81;100185.75;7396747;19;1204;-41
2023/10/21 03:30:37;;;;;;;;;;;;;;;21.51;51.61;100193.69;7395039;19;1846;-41
2023/10/21 03:33:07;;;;;;;;;;;;;;;21.49;51.83;100181.38;7394863;19;1432;-41
2023/10/21 03:35:35;;;;;;;;;;;;;;;21.50;51.76;100191.16;7394147;19;1466;-41
2023/10/21 03:38:03;;;;;;;;;;;;;;;21.49;51.68;100179.56;7394122;19;1847;-42
2023/10/21 03:40:34;;;;;;;;;;;;;;;21.45;51.77;100173.66;7394876;19;1498;-41
2023/10/21 03:43:03;;;;;;;;;;;;;;;21.53;51.64;100190.81;7380047;19;1470;-41
2023/10/21 03:45:31;;;;;;;;;;;;;;;21.44;51.72;100177.34;7394664;19;1522;-41
2023/10/21 03:47:59;;;;;;;;;;;;;;;21.45;51.57;100184.41;7395479;19;1497;-41
2023/10/21 03:50:28;;;;;;;;;;;;;;;21.47;51.83;100180.69;7396836;19;1411;-46
2023/10/21 03:52:56;;;;;;;;;;;;;;;21.45;51.60;100172.81;7393460;19;1585;-41
2023/10/21 03:55:25;;;;;;;;;;;;;;;21.43;51.67;100174.84;7394696;19;1522;-41
2023/10/21 03:57:56;;;;;;;;;;;;;;;21.47;51.33;100168.13;7391712;19;1857;-41
2023/10/21 04:00:24;;;;;;;;;;;;;;;21.46;51.76;100177.19;7394644;19;1608;-41
2023/10/21 04:02:52;;;;;;;;;;;;;;;21.42;51.69;100182.00;7396030;19;1823;-41
2023/10/21 04:05:21;;;;;;;;;;;;;;;21.42;51.47;100173.94;7395936;19;1477;-41
2023/10/21 04:07:49;;;;;;;;;;;;;;;21.39;51.61;100166.22;7394454;19;1578;-42
2023/10/21 04:10:17;;;;;;;;;;;;;;;21.44;51.43;100177.34;7392855;19;2400;-41
2023/10/21 04:12:46;;;;;;;;;;;;;;;21.39;51.40;100185.06;7394053;19;1440;-41
2023/10/21 04:15:17;;;;;;;;;;;;;;;21.42;51.48;100190.09;7395452;19;1486;-41
2023/10/21 04:17:47;;;;;;;;;;;;;;;21.42;51.41;100189.25;7392686;19;1845;-41
2023/10/21 04:20:16;;;;;;;;;;;;;;;21.47;51.20;100180.69;7392928;19;1478;-41
2023/10/21 04:22:44;;;;;;;;;;;;;;;21.40;51.32;100189.41;7393447;19;1519;-41
2023/10/21 04:25:12;;;;;;;;;;;;;;;21.44;51.42;100190.78;7394507;19;1795;-41
2023/10/21 04:27:41;;;;;;;;;;;;;;;21.42;51.08;100203.53;7394200;19;1474;-41
2023/10/21 04:30:10;;;;;;;;;;;;;;;21.42;51.31;100189.25;7395732;19;1479;-48
2023/10/21 04:32:41;;;;;;;;;;;;;;;21.45;51.10;100188.97;7394991;19;1558;-42
2023/10/21 04:35:10;;;;;;;;;;;;;;;21.44;51.11;100206.94;7391887;19;1615;-42
2023/10/21 04:37:39;;;;;;;;;;;;;;;21.39;51.06;100201.19;7393280;19;1834;-41
2023/10/21 04:40:08;;;;;;;;;;;;;;;21.38;51.20;100210.25;7394147;19;1541;-42
2023/10/21 04:42:37;;;;;;;;;;;;;;;21.38;51.17;100210.25;7391682;19;1369;-47
2023/10/21 04:45:05;;;;;;;;;;;;;;;21.39;51.15;100211.94;7379412;19;1560;-42
2023/10/21 04:47:33;;;;;;;;;;;;;;;21.42;50.94;100214.28;7390296;19;1477;-41
2023/10/21 04:50:05;;;;;;;;;;;;;;;21.39;50.88;100233.47;7393579;19;1455;-41
2023/10/21 04:52:33;;;;;;;;;;;;;;;21.40;51.15;100235.13;7394555;19;1227;-41
2023/10/21 04:55:02;;;;;;;;;;;;;;;21.36;50.94;100239.16;7391253;19;2595;-41
2023/10/21 04:57:31;;;;;;;;;;;;;;;21.41;51.03;100236.84;7392817;19;1883;-42
2023/10/21 04:59:59;;;;;;;;;;;;;;;21.38;50.78;100237.16;7393456;19;1483;-41
2023/10/21 05:02:28;;;;;;;;;;;;;;;21.39;50.71;100246.09;7392861;19;1478;-42
2023/10/21 05:04:56;;;;;;;;;;;;;;;21.40;50.73;100245.06;7393001;19;1416;-41
2023/10/21 05:07:27;;;;;;;;;;;;;;;21.44;50.63;100249.97;7392653;19;1465;-41
2023/10/21 05:09:55;;;;;;;;;;;;;;;21.51;50.47;100254.72;7392304;19;1482;-41
2023/10/21 05:12:24;;;;;;;;;;;;;;;21.56;50.49;100260.44;7392036;19;1624;-41
2023/10/21 05:14:52;;;;;;;;;;;;;;;21.56;50.20;100257.75;7392415;19;1486;-41
2023/10/21 05:17:20;;;;;;;;;;;;;;;21.62;50.21;100265.97;7391383;19;1772;-41
2023/10/21 05:19:48;;;;;;;;;;;;;;;21.65;50.10;100276.44;7391889;19;1863;-41
2023/10/21 05:22:17;;;;;;;;;;;;;;;21.64;50.14;100274.72;7393461;19;1518;-41
2023/10/21 05:24:48;;;;;;;;;;;;;;;21.80;49.78;100282.00;7392697;19;1819;-41
2023/10/21 05:27:16;;;;;;;;;;;;;;;21.85;49.62;100287.72;7392226;19;1466;-41
2023/10/21 05:29:44;;;;;;;;;;;;;;;21.80;49.85;100284.69;7392117;19;1446;-41
2023/10/21 05:32:14;;;;;;;;;;;;;;;21.90;49.58;100297.16;7392211;19;1588;-41
2023/10/21 05:34:43;;;;;;;;;;;;;;;21.99;49.42;100309.63;7391037;19;1513;-42
2023/10/21 05:37:11;;;;;;;;;;;;;;;22.03;49.59;100319.91;7391562;19;1427;-41
2023/10/21 05:39:39;;;;;;;;;;;;;;;22.05;49.41;100314.34;7390140;19;1841;-41
2023/10/21 05:42:11;;;;;;;;;;;;;;;22.04;49.24;100309.97;7393366;19;1458;-41
2023/10/21 05:44:39;;;;;;;;;;;;;;;22.04;49.29;100318.91;7376105;19;1600;-41
2023/10/21 05:47:09;;;;;;;;;;;;;;;22.07;49.56;100336.56;7392306;19;1415;-42
2023/10/21 05:49:37;;;;;;;;;;;;;;;22.07;49.55;100317.72;7392383;19;1834;-41
2023/10/21 05:52:05;;;;;;;;;;;;;;;22.06;49.60;100316.03;7389491;19;1483;-41
2023/10/21 05:54:34;;;;;;;;;;;;;;;22.02;49.72;100322.75;7391236;19;1744;-41
2023/10/21 05:57:02;;;;;;;;;;;;;;;21.96;49.75;100336.88;7391343;19;1457;-41
2023/10/21 05:59:33;;;;;;;;;;;;;;;21.85;49.89;100330.81;7395141;19;1864;-41
2023/10/21 06:02:02;;;;;;;;;;;;;;;21.75;50.04;100335.50;7397825;19;1427;-41
2023/10/21 06:04:31;;;;;;;;;;;;;;;21.72;50.32;100319.66;7398724;19;1440;-41
2023/10/21 06:07:00;;;;;;;;;;;;;;;21.73;50.43;100342.88;7397287;19;1482;-41
2023/10/21 06:09:28;;;;;;;;;;;;;;;21.73;50.44;100334.81;7399152;19;1490;-41
2023/10/21 06:11:57;;;;;;;;;;;;;;;21.73;50.18;100333.97;7399429;19;1479;-41
2023/10/21 06:14:25;;;;;;;;;;;;;;;21.77;50.29;100346.94;7399592;19;1585;-41
2023/10/21 06:16:56;;;;;;;;;;;;;;;21.79;50.19;100341.41;7395092;19;1550;-41
2023/10/21 06:19:24;;;;;;;;;;;;;;;21.80;50.38;100346.59;7397153;19;1851;-41
2023/10/21 06:21:52;;;;;;;;;;;;;;;21.84;50.35;100347.97;7397096;19;1506;-41
2023/10/21 06:24:21;;;;;;;;;;;;;;;21.89;50.13;100341.25;7398478;19;1299;-41
2023/10/21 06:26:49;;;;;;;;;;;;;;;21.93;50.16;100342.59;7399256;19;1760;-41
2023/10/21 06:29:17;;;;;;;;;;;;;;;22.05;50.18;100360.13;7398770;19;1594;-41
2023/10/21 06:31:46;;;;;;;;;;;;;;;22.11;49.90;100362.16;7398827;19;1798;-41
2023/10/21 06:34:17;;;;;;;;;;;;;;;22.10;50.26;100365.00;7398025;19;1573;-41
2023/10/21 06:36:45;;;;;;;;;;;;;;;22.14;50.27;100367.19;7399051;19;1481;-41
2023/10/21 06:39:14;;;;;;;;;;;;;;;22.17;50.47;100361.50;7396874;19;1862;-41
2023/10/21 06:41:43;;;;;;;;;;;;;;;22.17;50.67;100361.50;7398654;19;1769;-41
2023/10/21 06:44:11;;;;;;;;;;;;;;;22.20;50.22;100365.69;6858248;19;10000079;-41
2023/10/21 06:46:40;;;;;;;;;;;;;;;22.26;50.21;100348.91;7389425;19;1725;-41
2023/10/21 06:49:09;;;;;;;;;;;;;;;22.22;50.62;100348.38;7390074;19;1478;-41
2023/10/21 06:51:40;;;;;;;;;;;;;;;22.24;50.42;100362.56;7390817;19;1494;-41
2023/10/21 06:54:08;;;;;;;;;;;;;;;22.29;50.37;100370.13;7388520;19;1546;-41
2023/10/21 06:56:37;;;;;;;;;;;;;;;22.26;50.77;100356.13;7387931;19;1426;-43
2023/10/21 06:59:06;;;;;;;;;;;;;;;22.22;50.59;100364.53;7389365;19;1845;-42
2023/10/21 07:01:34;;;;;;;;;;;;;;;22.23;50.70;100366.22;7388450;19;2258;-42
2023/10/21 07:04:03;;;;;;;;;;;;;;;22.28;50.72;100362.19;7390340;19;1375;-41
2023/10/21 07:06:32;;;;;;;;;;;;;;;22.27;50.72;100372.13;7390471;19;1498;-41
2023/10/21 07:09:02;;;;;;;;;;;;;;;22.27;50.68;100360.53;7387861;19;1528;-42
2023/10/21 07:11:31;;;;;;;;;;;;;;;22.29;51.29;100374.69;7386834;19;1391;-41
2023/10/21 07:14:00;;;;;;;;;;;;;;;22.36;50.63;100365.75;7391062;19;1660;-42
2023/10/21 07:16:29;;;;;;;;;;;;;;;22.35;50.72;100374.00;7389233;19;1752;-42
2023/10/21 07:18:57;;;;;;;;;;;;;;;22.53;50.78;100385.47;7388719;19;1886;-42
2023/10/21 07:21:25;;;;;;;;;;;;;;;22.38;50.83;100371.81;7390454;19;1661;-42
2023/10/21 07:23:54;;;;;;;;;;;;;;;22.43;51.08;100366.75;7389332;19;1504;-42
2023/10/21 07:26:25;;;;;;;;;;;;;;;22.47;51.51;100356.50;7389698;19;1533;-42
2023/10/21 07:28:54;;;;;;;;;;;;;;;22.78;50.45;100364.75;7389095;19;1498;-42
2023/10/21 07:31:22;;;;;;;;;;;;;;;22.81;50.56;100374.31;7388894;19;1577;-42
2023/10/21 07:33:53;;;;;;;;;;;;;;;22.70;51.41;100375.53;7390075;19;1427;-42
2023/10/21 07:36:21;;;;;;;;;;;;;;;22.48;51.66;100371.63;7389339;19;1862;-42
2023/10/21 07:38:50;;;;;;;;;;;;;;;22.55;51.31;100367.25;7389517;19;1850;-42
2023/10/21 07:41:19;;;;;;;;;;;;;;;22.83;50.62;100361.53;7390623;19;1414;-42
2023/10/21 07:43:50;;;;;;;;;;;;;;;22.84;50.09;100380.22;7372639;19;2334;-42
2023/10/21 07:46:18;;;;;;;;;;;;;;;22.91;49.60;100380.38;7389416;19;1564;-43
2023/10/21 07:48:46;;;;;;;;;;;;;;;22.86;50.16;100379.19;7387644;19;1740;-42
2023/10/21 07:51:15;;;;;;;;;;;;;;;22.90;49.85;100372.44;7387424;19;1445;-42
2023/10/21 07:53:43;;;;;;;;;;;;;;;22.88;49.79;100396.03;7389135;19;1493;-42
2023/10/21 07:56:11;;;;;;;;;;;;;;;22.69;50.30;100371.13;7392918;19;1473;-42
2023/10/21 07:58:42;;;;;;;;;;;;;;;22.77;50.86;100381.06;7391774;19;1851;-42
2023/10/21 08:01:13;;;;;;;;;;;;;;;22.73;50.08;100361.69;7393482;19;1485;-42
2023/10/21 08:03:41;;;;;;;;;;;;;;;21.90;43.27;100376.06;7397255;19;1407;-41
2023/10/21 08:06:10;;;;;;;;;;;;;;;22.18;46.30;100378.47;7395912;19;1763;-42
2023/10/21 08:08:38;;;;;;;;;;;;;;;22.44;46.67;100378.38;7393915;19;1831;-42
2023/10/21 08:11:06;;;;;;;;;;;;;;;22.51;45.83;100384.78;7396914;19;1728;-42
2023/10/21 08:13:34;;;;;;;;;;;;;;;22.48;44.99;100376.19;7394047;19;1925;-42
2023/10/21 08:16:04;;;;;;;;;;;;;;;22.50;44.92;100372.34;7391813;19;1368;-42
2023/10/21 08:18:35;;;;;;;;;;;;;;;22.51;44.70;100383.94;7394145;19;1490;-42
2023/10/21 08:21:04;;;;;;;;;;;;;;;22.46;45.40;100383.59;7392956;19;1856;-41
2023/10/21 08:23:32;;;;;;;;;;;;;;;22.50;43.50;100383.13;7395110;19;1709;-42
2023/10/21 08:26:01;;;;;;;;;;;;;;;22.44;43.84;100376.53;7393289;19;1450;-42
2023/10/21 08:28:32;;;;;;;;;;;;;;;22.52;43.38;100386.47;7392982;19;1460;-42
2023/10/21 08:31:01;;;;;;;;;;;;;;;22.51;42.74;100384.78;7394840;19;1843;-42
2023/10/21 08:33:29;;;;;;;;;;;;;;;22.55;42.37;100396.91;7395229;19;1863;-42
2023/10/21 08:36:01;;;;;;;;;;;;;;;22.60;42.49;100389.19;7393506;19;1772;-42
2023/10/21 08:38:30;;;;;;;;;;;;;;;22.58;42.66;100396.59;7395168;19;1546;-47
2023/10/21 08:40:58;;;;;;;;;;;;;;;22.62;41.79;100403.31;7392966;19;1842;-42
2023/10/21 08:43:26;;;;;;;;;;;;;;;22.54;42.24;100395.25;7392881;19;1478;-42
2023/10/21 08:45:55;;;;;;;;;;;;;;;22.48;42.66;100395.88;7378586;19;1767;-42
2023/10/21 08:48:25;;;;;;;;;;;;;;;22.51;42.47;100400.13;7393761;19;1561;-41
2023/10/21 08:50:54;;;;;;;;;;;;;;;22.51;42.37;100400.13;7393749;19;1443;-42
2023/10/21 08:53:27;;;;;;;;;;;;;;;22.49;42.56;100402.97;7394128;19;1542;-42
2023/10/21 08:55:55;;;;;;;;;;;;;;;22.57;42.69;100405.66;7394072;19;1546;-42
2023/10/21 08:58:28;;;;;;;;;;;;;;;22.56;42.37;100404.00;7393949;19;1589;-42
2023/10/21 09:00:56;;;;;;;;;;;;;;;22.58;41.62;100401.97;7390732;19;1842;-42
2023/10/21 09:03:25;;;;;;;;;;;;;;;22.57;42.04;100391.34;7392632;19;1400;-42
2023/10/21 09:06:10;;;;;;;;;;;;;;;22.65;41.74;100412.91;7391061;19;1514;-42
2023/10/21 09:08:43;;;;;;;;;;;;;;;22.70;41.09;100397.09;7392396;19;1787;-42
2023/10/21 09:11:12;;;;;;;;;;;;;;;22.83;40.66;100407.34;7392721;19;1403;-42
2023/10/21 09:13:41;;;;;;;;;;;;;;;22.86;40.23;100404.34;7394469;19;1473;-42
2023/10/21 09:16:20;;;;;;;;;;;;;;;22.89;40.22;100403.97;7390964;19;1764;-42
2023/10/21 09:18:57;;;;;;;;;;;;;;;22.94;40.71;100404.31;7394728;19;1493;-42
2023/10/21 09:21:36;;;;;;;;;;;;;;;22.97;40.06;100409.34;7393572;19;1511;-42
2023/10/21 09:24:09;;;;;;;;;;;;;;;23.14;39.81;100417.44;7389937;19;1851;-42
2023/10/21 09:26:38;;;;;;;;;;;;;;;23.16;40.33;100410.06;7387639;19;1686;-42
2023/10/21 09:29:07;;;;;;;;;;;;;;;23.19;40.65;100415.09;7390802;19;1396;-42
2023/10/21 09:31:51;;;;;;;;;;;;;;;23.21;40.23;100403.09;7391959;19;1550;-42
2023/10/21 09:34:24;;;;;;;;;;;;;;;23.26;39.96;100409.84;7388113;19;2140;-42
2023/10/21 09:36:53;;;;;;;;;;;;;;;23.16;39.76;100400.09;7391600;19;1720;-41
2023/10/21 09:39:24;;;;;;;;;;;;;;;23.24;39.75;100404.63;7390449;19;1853;-42
2023/10/21 09:41:53;;;;;;;;;;;;;;;23.33;39.10;100400.88;7391351;19;1450;-42
2023/10/21 09:44:21;;;;;;;;;;;;;;;23.46;39.39;100443.53;7377049;19;1708;-42
2023/10/21 09:46:50;;;;;;;;;;;;;;;23.43;39.44;100404.22;7392827;19;1866;-42
2023/10/21 09:49:18;;;;;;;;;;;;;;;23.58;39.57;100395.41;7392300;19;1760;-41
2023/10/21 09:51:49;;;;;;;;;;;;;;;23.68;38.57;100390.66;7391219;19;1468;-42
2023/10/21 09:54:21;;;;;;;;;;;;;;;23.65;39.11;100391.00;7388849;19;1763;-42
2023/10/21 09:56:53;;;;;;;;;;;;;;;23.61;40.53;100405.84;7390972;19;1660;-41
2023/10/21 09:59:22;;;;;;;;;;;;;;;23.56;40.02;100394.75;7377154;19;1865;-41
2023/10/21 10:01:52;;;;;;;;;;;;;;;23.62;39.48;100404.84;7370584;19;1360;-41
2023/10/21 10:04:22;;;;;;;;;;;;;;;23.68;39.32;100382.56;7392285;19;1942;-41
2023/10/21 10:06:56;;;;;;;;;;;;;;;23.79;38.78;100402.94;7393358;19;1960;-41
2023/10/21 10:09:25;;;;;;;;;;;;;;;23.79;38.45;100390.28;7393503;19;1410;-41
2023/10/21 10:11:58;;;;;;;;;;;;;;;23.70;38.49;100385.09;7392448;19;1638;-41
2023/10/21 10:14:28;;;;;;;;;;;;;;;23.75;39.01;100378.13;7390947;19;1852;-41
2023/10/21 10:16:56;;;;;;;;;;;;;;;23.66;39.07;100378.34;7390947;19;1435;-41
2023/10/21 10:19:38;;;;;;;;;;;;;;;24.05;36.43;100367.50;7391110;19;1848;-41
2023/10/21 10:22:19;;;;;;;;;;;;;;;24.31;35.64;100369.03;7390699;19;1542;-41
2023/10/21 10:24:56;;;;;;;;;;;;;;;24.11;35.93;100366.78;7390117;19;1615;-45
2023/10/21 10:27:37;;;;;;;;;;;;;;;24.18;36.36;100370.47;7389429;19;1679;-41
2023/10/21 10:30:10;;;;;;;;;;;;;;;24.04;37.11;100360.44;7389532;19;1560;-41
2023/10/21 10:32:43;;;;;;;;;;;;;;;23.98;37.13;100377.38;7391674;19;1607;-41
2023/10/21 10:35:14;;;;;;;;;;;;;;;24.06;37.18;100369.22;7386937;19;1745;-41
2023/10/21 10:37:53;;;;;;;;;;;;;;;23.98;37.30;100369.25;7387019;19;1544;-39
2023/10/21 10:40:22;;;;;;;;;;;;;;;24.02;37.65;100365.19;7386923;19;1847;-39
2023/10/21 10:42:53;;;;;;;;;;;;;;;23.85;38.05;100366.28;7390966;19;1581;-40
2023/10/21 10:45:22;;;;;;;;;;;;;;;23.94;37.66;100366.06;7394422;19;1666;-39
2023/10/21 10:47:57;;;;;;;;;;;;;;;24.03;38.44;100358.75;7397170;19;1556;-40
2023/10/21 10:50:26;;;;;;;;;;;;;;;23.90;38.30;100369.31;7394371;19;1387;-39
2023/10/21 10:52:55;;;;;;;;;;;;;;;23.89;39.31;100362.22;7393444;19;1497;-41
2023/10/21 10:55:23;;;;;;;;;;;;;;;23.85;39.25;100369.00;7393957;19;1544;-40
2023/10/21 10:57:54;;;;;;;;;;;;;;;23.71;39.99;100362.44;7390358;19;1459;-41
2023/10/21 11:00:25;;;;;;;;;;;;;;;23.77;39.76;100365.31;7387355;19;2479;-40
2023/10/21 11:02:54;;;;;;;;;;;;;;;23.82;39.39;100362.94;7392223;19;1828;-40
2023/10/21 11:05:23;;;;;;;;;;;;;;;23.78;38.81;100360.78;7392742;19;1571;-41
2023/10/21 11:07:52;;;;;;;;;;;;;;;23.76;38.74;100358.22;7394170;19;1501;-40
2023/10/21 11:10:22;;;;;;;;;;;;;;;23.78;38.69;100350.81;7393158;19;1689;-41
2023/10/21 11:12:50;;;;;;;;;;;;;;;23.90;38.03;100347.72;7394463;19;1557;-41
2023/10/21 11:15:19;;;;;;;;;;;;;;;23.85;37.66;100360.91;7397609;19;1690;-41
2023/10/21 11:17:48;;;;;;;;;;;;;;;23.84;38.06;100359.22;7395012;19;1533;-40
2023/10/21 11:20:17;;;;;;;;;;;;;;;23.82;37.27;100352.13;7393202;19;1856;-41
2023/10/21 11:22:45;;;;;;;;;;;;;;;23.89;37.07;100356.81;7392471;19;1491;-41
2023/10/21 11:25:13;;;;;;;;;;;;;;;23.85;37.54;100355.50;7393696;19;1463;-40
2023/10/21 11:27:42;;;;;;;;;;;;;;;23.77;37.89;100348.25;7392207;19;1400;-41
2023/10/21 11:30:11;;;;;;;;;;;;;;;23.71;37.14;100339.00;7391776;19;1732;-40
2023/10/21 11:32:42;;;;;;;;;;;;;;;23.82;37.13;100345.91;7394997;19;1765;-41
2023/10/21 11:35:12;;;;;;;;;;;;;;;23.78;37.29;100336.47;7395288;19;1733;-41
2023/10/21 11:37:40;;;;;;;;;;;;;;;23.89;36.36;100335.22;7397189;19;1674;-40
2023/10/21 11:40:10;;;;;;;;;;;;;;;23.82;36.42;100357.53;7396254;19;1868;-41
2023/10/21 11:42:39;;;;;;;;;;;;;;;23.92;35.85;100345.69;7396965;19;1674;-41
2023/10/21 11:45:09;;;;;;;;;;;;;;;23.94;36.19;100343.63;7395700;19;1863;-41
2023/10/21 11:47:38;;;;;;;;;;;;;;;24.11;35.30;100345.19;7396964;19;1504;-41
2023/10/21 11:50:11;;;;;;;;;;;;;;;24.10;35.20;100338.13;7397601;19;1544;-41
2023/10/21 11:52:42;;;;;;;;;;;;;;;24.02;35.51;100330.06;7397379;19;1831;-41
2023/10/21 12:20:24;;;;;;;;;;;;;;;23.73;36.14;100331.56;7391751;19;1871;-41
2023/10/21 12:36:36;;;;;;;;;;;;;;;23.80;35.92;100324.47;7387288;19;1690;-40
2023/10/21 12:39:20;;;;;;;;;;;;;;;23.63;35.80;100294.00;7390191;19;1435;-41
2023/10/21 12:41:52;;;;;;;;;;;;;;;23.95;35.25;100308.31;7389492;19;1865;-40
2023/10/21 12:44:23;;;;;;;;;;;;;;;23.95;35.82;100302.09;7389469;19;1508;-41
2023/10/21 12:46:55;;;;;;;;;;;;;;;23.88;35.99;100312.78;7389734;19;1838;-41
2023/10/21 12:49:24;;;;;;;;;;;;;;;23.85;35.60;100323.09;7383568;19;1567;-41
2023/10/21 12:51:53;;;;;;;;;;;;;;;23.87;35.98;100321.06;7385042;19;1694;-41
2023/10/21 12:54:24;;;;;;;;;;;;;;;23.84;35.97;100321.44;7387947;19;1659;-41
2023/10/21 12:56:52;;;;;;;;;;;;;;;23.90;35.13;100309.91;7386933;19;1484;-42
2023/10/21 12:59:22;;;;;;;;;;;;;;;23.89;35.80;100321.72;7387007;19;1546;-41
2023/10/21 13:01:51;;;;;;;;;;;;;;;23.82;35.37;100300.81;7386937;19;1825;-41
2023/10/21 13:04:19;;;;;;;;;;;;;;;23.85;34.87;100302.31;7388470;19;1583;-40
2023/10/21 13:06:47;;;;;;;;;;;;;;;23.86;35.12;100311.28;7388054;19;1430;-41
2023/10/21 13:09:29;;;;;;;;;;;;;;;23.82;35.15;100306.22;7383915;19;1737;-41
2023/10/21 13:12:00;;;;;;;;;;;;;;;23.82;35.31;100302.69;7387886;19;1286;-40
2023/10/21 13:14:29;;;;;;;;;;;;;;;23.85;35.16;100313.13;7388205;19;1700;-41
2023/10/21 13:16:58;;;;;;;;;;;;;;;23.79;35.30;100295.78;7386981;19;1819;-41
2023/10/21 13:19:26;;;;;;;;;;;;;;;23.73;35.50;100304.56;7386620;19;1866;-41
2023/10/21 13:21:55;;;;;;;;;;;;;;;23.72;35.47;100300.19;7385432;19;1872;-41
2023/10/21 13:24:24;;;;;;;;;;;;;;;23.79;35.40;100303.03;7388170;19;1707;-40
2023/10/21 13:26:52;;;;;;;;;;;;;;;23.65;36.46;100304.59;7387137;19;1926;-41
2023/10/21 13:29:23;;;;;;;;;;;;;;;23.59;37.45;100297.22;7386777;19;1632;-41
2023/10/21 13:31:52;;;;;;;;;;;;;;;23.50;37.48;100298.31;7386721;19;1843;-41
2023/10/21 13:34:20;;;;;;;;;;;;;;;23.52;38.59;100301.66;7387026;19;1851;-41
2023/10/21 13:36:48;;;;;;;;;;;;;;;23.55;39.09;100302.13;7382374;19;2395;-41